Lebanon, OR

2:54 AM PDT on March 29, 2015 (GMT -0700)
Near Downtown - Grant | | Change Station
CLOSE
Current Station
Personal Weather Station
Location: Lebanon, OR
Elevation: 354 ft
Nearby Weather Stations

Elev 354 ft 44.54 °N, 122.90 °W | Updated 4 seconds ago

Partly Cloudy
Partly Cloudy
46.0 °F
Feels Like 46 °F
N
0.7
Wind Variable Wind from NE
Gusts 1.6 mph

Today
High -- | Low -- °F
--% Chance of Precip.
Yesterday
High -- | Low -- °F
Precip. -- in
6:58 AM 7:35 PM
Waxing Gibbous, 70% visible
Pressure 30.34 in
Visibility 10.0 miles
Clouds Clear
Windchill 46 °F
Dew Point 45 °F
Humidity 95%
Rainfall 0.00 in
Snow Depth Not available.
UV 0 out of 12
Pollen 4.50 out of 12
Air Quality Not available.
Flu Activity Not available.
METAR KCVO 290935Z AUTO 28003KT 10SM CLR 07/05 A3034 RMK AO1

More Conditions Fewer Conditions

Pressure 30.34 in
Visibility 10.0 miles
Clouds Clear
Windchill 46 °F
Dew Point 45 °F
Humidity 95%
Rainfall 0.00 in
Snow Depth Not available.
UV 0 out of 12
Pollen 4.50 out of 12
Air Quality Not available.
Flu Activity Not available.
METAR KCVO 290935Z AUTO 28003KT 10SM CLR 07/05 A3034 RMK AO1

More Conditions Fewer Conditions

10-Day Weather Forecast

Almanac

Astronomy

Mar. 29, 2015 Rise Set
Actual Time
Civil Twilight
Nautical Twilight
Astronomical Twilight
Moon
Length of Visible Light
Length of Day
Tomorrow will be .
, % of the Moon is Illuminated

Today's Extremes

State Highs State Lows

Community

WunderPhotos

Upload Photos

1,809,199 photos uploaded!

WunderBlogs® & News

Nearby

Air Quality

  Air Quality AQ Index Pollutant
Not available.

Snow Depth

Station Depth Elevation

Earthquake Activity

City Distance Mag. Time & Date
Minimum magnitude displayed is 2.5.

Coastal Water Temperatures

Place Temperature

Stations

Nearby Weather Stations

Station Location Temp. Windchill Dew Point Humidity Wind Precip. Elev Updated Type